sensor_id;sensor_type;location;lat;lon;timestamp;pressure;altitude;pressure_sealevel;temperature;humidity
61359;BME280;47228;46.762;23.598;2023-08-21T00:01:38;97635.91;;;22.94;65.76
61359;BME280;47228;46.762;23.598;2023-08-21T00:04:06;97636.84;;;22.92;65.68
61359;BME280;47228;46.762;23.598;2023-08-21T00:06:35;97638.20;;;22.90;65.86
61359;BME280;47228;46.762;23.598;2023-08-21T00:09:03;97635.09;;;22.87;66.10
61359;BME280;47228;46.762;23.598;2023-08-21T00:11:31;97629.46;;;22.85;65.86
61359;BME280;47228;46.762;23.598;2023-08-21T00:13:59;97633.58;;;22.84;65.95
61359;BME280;47228;46.762;23.598;2023-08-21T00:16:27;97633.90;;;22.84;66.03
61359;BME280;47228;46.762;23.598;2023-08-21T00:18:56;97638.35;;;22.82;65.90
61359;BME280;47228;46.762;23.598;2023-08-21T00:21:24;97637.05;;;22.80;66.00
61359;BME280;47228;46.762;23.598;2023-08-21T00:23:52;97637.06;;;22.78;66.20
61359;BME280;47228;46.762;23.598;2023-08-21T00:26:20;97638.59;;;22.76;66.22
61359;BME280;47228;46.762;23.598;2023-08-21T00:28:47;97638.50;;;22.72;66.10
61359;BME280;47228;46.762;23.598;2023-08-21T00:31:15;97640.67;;;22.69;66.02
61359;BME280;47228;46.762;23.598;2023-08-21T00:33:44;97638.13;;;22.66;66.08
61359;BME280;47228;46.762;23.598;2023-08-21T00:36:12;97637.34;;;22.62;66.34
61359;BME280;47228;46.762;23.598;2023-08-21T00:38:40;97637.93;;;22.59;66.36
61359;BME280;47228;46.762;23.598;2023-08-21T00:41:08;97635.02;;;22.56;66.57
61359;BME280;47228;46.762;23.598;2023-08-21T00:43:36;97636.52;;;22.53;66.66
61359;BME280;47228;46.762;23.598;2023-08-21T00:46:05;97636.95;;;22.50;66.65
61359;BME280;47228;46.762;23.598;2023-08-21T00:48:33;97640.92;;;22.46;66.72
61359;BME280;47228;46.762;23.598;2023-08-21T00:51:03;97640.82;;;22.44;66.86
61359;BME280;47228;46.762;23.598;2023-08-21T00:53:32;97643.80;;;22.43;66.90
61359;BME280;47228;46.762;23.598;2023-08-21T00:56:00;97638.28;;;22.41;66.94
61359;BME280;47228;46.762;23.598;2023-08-21T00:58:28;97641.41;;;22.39;66.65
61359;BME280;47228;46.762;23.598;2023-08-21T01:00:56;97643.70;;;22.36;66.91
61359;BME280;47228;46.762;23.598;2023-08-21T01:03:25;97642.67;;;22.34;66.89
61359;BME280;47228;46.762;23.598;2023-08-21T01:05:54;97638.68;;;22.32;67.15
61359;BME280;47228;46.762;23.598;2023-08-21T01:11:09;97634.26;;;22.28;67.11
61359;BME280;47228;46.762;23.598;2023-08-21T01:16:13;97630.75;;;22.24;67.05
61359;BME280;47228;46.762;23.598;2023-08-21T01:18:45;97631.55;;;22.23;66.98
61359;BME280;47228;46.762;23.598;2023-08-21T01:21:16;97630.73;;;22.22;67.26
61359;BME280;47228;46.762;23.598;2023-08-21T01:23:44;97629.45;;;22.21;66.99
61359;BME280;47228;46.762;23.598;2023-08-21T01:26:12;97631.73;;;22.20;67.17
61359;BME280;47228;46.762;23.598;2023-08-21T01:28:40;97631.51;;;22.20;67.13
61359;BME280;47228;46.762;23.598;2023-08-21T01:31:15;97633.56;;;22.20;67.30
61359;BME280;47228;46.762;23.598;2023-08-21T01:33:54;97630.73;;;22.18;67.04
61359;BME280;47228;46.762;23.598;2023-08-21T01:36:25;97632.86;;;22.18;67.08
61359;BME280;47228;46.762;23.598;2023-08-21T01:38:53;97628.48;;;22.16;67.27
61359;BME280;47228;46.762;23.598;2023-08-21T01:41:24;97627.39;;;22.13;67.44
61359;BME280;47228;46.762;23.598;2023-08-21T01:43:52;97625.06;;;22.09;67.32
61359;BME280;47228;46.762;23.598;2023-08-21T01:46:21;97627.34;;;22.07;67.52
61359;BME280;47228;46.762;23.598;2023-08-21T01:48:49;97629.52;;;22.05;67.61
61359;BME280;47228;46.762;23.598;2023-08-21T01:51:17;97628.54;;;22.03;67.55
61359;BME280;47228;46.762;23.598;2023-08-21T01:53:45;97626.76;;;22.02;67.44
61359;BME280;47228;46.762;23.598;2023-08-21T01:56:13;97622.11;;;21.99;67.53
61359;BME280;47228;46.762;23.598;2023-08-21T01:58:41;97621.41;;;21.94;67.78
61359;BME280;47228;46.762;23.598;2023-08-21T02:01:08;97622.65;;;21.91;68.02
61359;BME280;47228;46.762;23.598;2023-08-21T02:03:36;97623.86;;;21.88;68.04
61359;BME280;47228;46.762;23.598;2023-08-21T02:06:04;97628.17;;;21.85;68.06
61359;BME280;47228;46.762;23.598;2023-08-21T02:08:33;97631.55;;;21.83;68.32
61359;BME280;47228;46.762;23.598;2023-08-21T02:11:01;97634.17;;;21.80;68.16
61359;BME280;47228;46.762;23.598;2023-08-21T02:13:29;97630.13;;;21.77;68.19
61359;BME280;47228;46.762;23.598;2023-08-21T02:15:57;97627.85;;;21.76;68.39
61359;BME280;47228;46.762;23.598;2023-08-21T02:18:25;97628.18;;;21.74;68.20
61359;BME280;47228;46.762;23.598;2023-08-21T02:20:53;97627.14;;;21.74;68.47
61359;BME280;47228;46.762;23.598;2023-08-21T02:23:21;97622.41;;;21.72;68.69
61359;BME280;47228;46.762;23.598;2023-08-21T02:25:51;97622.67;;;21.71;68.67
61359;BME280;47228;46.762;23.598;2023-08-21T02:28:19;97621.72;;;21.72;68.52
61359;BME280;47228;46.762;23.598;2023-08-21T02:30:47;97620.46;;;21.70;68.44
61359;BME280;47228;46.762;23.598;2023-08-21T02:33:15;97615.86;;;21.68;68.42
61359;BME280;47228;46.762;23.598;2023-08-21T02:35:44;97614.13;;;21.67;68.54
61359;BME280;47228;46.762;23.598;2023-08-21T02:38:12;97615.33;;;21.65;68.55
61359;BME280;47228;46.762;23.598;2023-08-21T02:40:40;97619.81;;;21.66;68.70
61359;BME280;47228;46.762;23.598;2023-08-21T02:43:08;97621.48;;;21.67;68.52
61359;BME280;47228;46.762;23.598;2023-08-21T02:45:36;97614.02;;;21.67;68.54
61359;BME280;47228;46.762;23.598;2023-08-21T02:48:04;97611.27;;;21.67;68.42
61359;BME280;47228;46.762;23.598;2023-08-21T02:50:32;97610.84;;;21.66;68.37
61359;BME280;47228;46.762;23.598;2023-08-21T02:53:00;97611.59;;;21.64;68.36
61359;BME280;47228;46.762;23.598;2023-08-21T02:55:28;97615.38;;;21.61;68.41
61359;BME280;47228;46.762;23.598;2023-08-21T02:57:56;97614.79;;;21.60;68.54
61359;BME280;47228;46.762;23.598;2023-08-21T03:00:24;97616.61;;;21.61;68.57
61359;BME280;47228;46.762;23.598;2023-08-21T03:02:51;97618.14;;;21.62;68.36
61359;BME280;47228;46.762;23.598;2023-08-21T03:05:20;97619.81;;;21.63;68.40
61359;BME280;47228;46.762;23.598;2023-08-21T03:07:47;97619.88;;;21.63;68.33
61359;BME280;47228;46.762;23.598;2023-08-21T03:10:15;97622.83;;;21.62;68.25
61359;BME280;47228;46.762;23.598;2023-08-21T03:12:43;97621.33;;;21.62;68.30
61359;BME280;47228;46.762;23.598;2023-08-21T03:15:11;97622.41;;;21.61;68.43
61359;BME280;47228;46.762;23.598;2023-08-21T03:17:39;97626.66;;;21.59;68.55
61359;BME280;47228;46.762;23.598;2023-08-21T03:20:09;97627.00;;;21.57;68.53
61359;BME280;47228;46.762;23.598;2023-08-21T03:22:37;97630.23;;;21.55;68.48
61359;BME280;47228;46.762;23.598;2023-08-21T03:25:05;97633.96;;;21.53;68.68
61359;BME280;47228;46.762;23.598;2023-08-21T03:27:34;97633.80;;;21.51;68.72
61359;BME280;47228;46.762;23.598;2023-08-21T03:30:07;97633.46;;;21.51;68.96
61359;BME280;47228;46.762;23.598;2023-08-21T03:32:37;97637.25;;;21.50;68.84
61359;BME280;47228;46.762;23.598;2023-08-21T03:35:06;97637.14;;;21.48;68.83
61359;BME280;47228;46.762;23.598;2023-08-21T03:37:34;97644.59;;;21.44;68.87
61359;BME280;47228;46.762;23.598;2023-08-21T03:40:03;97645.62;;;21.44;69.09
61359;BME280;47228;46.762;23.598;2023-08-21T03:42:31;97648.69;;;21.43;69.14
61359;BME280;47228;46.762;23.598;2023-08-21T03:44:59;97649.14;;;21.44;69.32
61359;BME280;47228;46.762;23.598;2023-08-21T03:47:27;97647.77;;;21.46;69.02
61359;BME280;47228;46.762;23.598;2023-08-21T03:49:56;97645.79;;;21.47;69.05
61359;BME280;47228;46.762;23.598;2023-08-21T03:52:24;97647.90;;;21.48;68.87
61359;BME280;47228;46.762;23.598;2023-08-21T03:54:52;97657.02;;;21.49;69.03
61359;BME280;47228;46.762;23.598;2023-08-21T03:57:20;97660.17;;;21.49;69.10
61359;BME280;47228;46.762;23.598;2023-08-21T03:59:48;97666.65;;;21.50;69.15
61359;BME280;47228;46.762;23.598;2023-08-21T04:02:16;97665.52;;;21.50;69.19
61359;BME280;47228;46.762;23.598;2023-08-21T04:04:44;97666.01;;;21.51;69.28
61359;BME280;47228;46.762;23.598;2023-08-21T04:07:12;97668.34;;;21.51;69.23
61359;BME280;47228;46.762;23.598;2023-08-21T04:09:40;97665.15;;;21.51;69.04
61359;BME280;47228;46.762;23.598;2023-08-21T04:12:08;97668.11;;;21.50;69.11
61359;BME280;47228;46.762;23.598;2023-08-21T04:14:36;97670.38;;;21.51;69.46
61359;BME280;47228;46.762;23.598;2023-08-21T04:17:04;97672.33;;;21.52;69.49
61359;BME280;47228;46.762;23.598;2023-08-21T04:19:32;97673.69;;;21.53;69.71
61359;BME280;47228;46.762;23.598;2023-08-21T04:22:01;97676.17;;;21.55;69.51
61359;BME280;47228;46.762;23.598;2023-08-21T04:24:30;97678.34;;;21.57;69.53
61359;BME280;47228;46.762;23.598;2023-08-21T04:26:57;97677.15;;;21.59;69.32
61359;BME280;47228;46.762;23.598;2023-08-21T04:29:26;97674.30;;;21.60;69.49
61359;BME280;47228;46.762;23.598;2023-08-21T04:31:54;97678.35;;;21.60;69.34
61359;BME280;47228;46.762;23.598;2023-08-21T04:34:22;97683.69;;;21.60;69.35
61359;BME280;47228;46.762;23.598;2023-08-21T04:36:50;97680.57;;;21.61;69.38
61359;BME280;47228;46.762;23.598;2023-08-21T04:39:18;97681.59;;;21.61;69.47
61359;BME280;47228;46.762;23.598;2023-08-21T04:41:46;97682.45;;;21.60;69.41
61359;BME280;47228;46.762;23.598;2023-08-21T04:44:14;97681.80;;;21.60;69.32
61359;BME280;47228;46.762;23.598;2023-08-21T04:46:42;97686.61;;;21.60;69.30
61359;BME280;47228;46.762;23.598;2023-08-21T04:49:10;97690.50;;;21.61;69.35
61359;BME280;47228;46.762;23.598;2023-08-21T04:51:38;97689.86;;;21.60;69.48
61359;BME280;47228;46.762;23.598;2023-08-21T04:54:06;97691.54;;;21.60;69.46
61359;BME280;47228;46.762;23.598;2023-08-21T04:56:34;97691.86;;;21.60;69.51
61359;BME280;47228;46.762;23.598;2023-08-21T04:59:02;97691.75;;;21.60;69.45
61359;BME280;47228;46.762;23.598;2023-08-21T05:01:30;97688.77;;;21.58;69.63
61359;BME280;47228;46.762;23.598;2023-08-21T05:03:58;97687.30;;;21.57;69.37
61359;BME280;47228;46.762;23.598;2023-08-21T05:06:26;97693.74;;;21.56;69.63
61359;BME280;47228;46.762;23.598;2023-08-21T05:08:54;97692.27;;;21.55;69.73
61359;BME280;47228;46.762;23.598;2023-08-21T05:11:22;97690.45;;;21.58;69.77
61359;BME280;47228;46.762;23.598;2023-08-21T05:13:50;97687.64;;;21.61;69.86
61359;BME280;47228;46.762;23.598;2023-08-21T05:16:18;97687.59;;;21.63;69.99
61359;BME280;47228;46.762;23.598;2023-08-21T05:18:46;97688.84;;;21.65;69.95
61359;BME280;47228;46.762;23.598;2023-08-21T05:21:14;97694.03;;;21.66;69.68
61359;BME280;47228;46.762;23.598;2023-08-21T05:23:42;97696.03;;;21.69;69.73
61359;BME280;47228;46.762;23.598;2023-08-21T05:26:10;97694.59;;;21.73;69.61
61359;BME280;47228;46.762;23.598;2023-08-21T05:28:38;97690.50;;;21.73;69.69
61359;BME280;47228;46.762;23.598;2023-08-21T05:31:06;97684.40;;;21.76;69.84
61359;BME280;47228;46.762;23.598;2023-08-21T05:33:34;97684.19;;;21.79;69.77
61359;BME280;47228;46.762;23.598;2023-08-21T05:36:02;97682.30;;;21.82;69.70
61359;BME280;47228;46.762;23.598;2023-08-21T05:38:30;97684.95;;;21.85;69.61
61359;BME280;47228;46.762;23.598;2023-08-21T05:40:58;97683.38;;;21.86;69.33
61359;BME280;47228;46.762;23.598;2023-08-21T05:43:26;97682.78;;;21.88;69.13
61359;BME280;47228;46.762;23.598;2023-08-21T05:45:54;97683.27;;;21.90;69.26
61359;BME280;47228;46.762;23.598;2023-08-21T05:48:22;97683.55;;;21.94;69.30
61359;BME280;47228;46.762;23.598;2023-08-21T05:50:54;97685.02;;;21.98;69.31
61359;BME280;47228;46.762;23.598;2023-08-21T05:53:22;97683.83;;;22.02;69.28
61359;BME280;47228;46.762;23.598;2023-08-21T05:55:50;97684.73;;;22.06;69.18
61359;BME280;47228;46.762;23.598;2023-08-21T05:58:18;97681.48;;;22.12;69.19
61359;BME280;47228;46.762;23.598;2023-08-21T06:00:47;97679.55;;;22.19;69.02
61359;BME280;47228;46.762;23.598;2023-08-21T06:03:15;97678.50;;;22.27;68.95
61359;BME280;47228;46.762;23.598;2023-08-21T06:05:43;97677.80;;;22.35;68.99
61359;BME280;47228;46.762;23.598;2023-08-21T06:08:11;97681.23;;;22.42;68.53
61359;BME280;47228;46.762;23.598;2023-08-21T06:10:39;97681.50;;;22.47;68.44
61359;BME280;47228;46.762;23.598;2023-08-21T06:13:07;97680.57;;;22.52;67.97
61359;BME280;47228;46.762;23.598;2023-08-21T06:15:36;97681.24;;;22.58;68.00
61359;BME280;47228;46.762;23.598;2023-08-21T06:18:04;97681.61;;;22.65;68.11
61359;BME280;47228;46.762;23.598;2023-08-21T06:20:32;97680.95;;;22.74;68.08
61359;BME280;47228;46.762;23.598;2023-08-21T06:22:59;97677.01;;;22.84;67.86
61359;BME280;47228;46.762;23.598;2023-08-21T06:25:27;97680.88;;;22.94;67.29
61359;BME280;47228;46.762;23.598;2023-08-21T06:27:58;97679.42;;;23.02;67.09
61359;BME280;47228;46.762;23.598;2023-08-21T06:30:26;97681.67;;;23.10;66.86
61359;BME280;47228;46.762;23.598;2023-08-21T06:32:55;97687.21;;;23.19;66.72
61359;BME280;47228;46.762;23.598;2023-08-21T06:35:24;97681.39;;;23.26;66.18
61359;BME280;47228;46.762;23.598;2023-08-21T06:37:51;97680.39;;;23.32;65.82
61359;BME280;47228;46.762;23.598;2023-08-21T06:40:20;97685.14;;;23.39;66.04
61359;BME280;47228;46.762;23.598;2023-08-21T06:42:48;97684.98;;;23.47;65.99
61359;BME280;47228;46.762;23.598;2023-08-21T06:45:18;97682.66;;;23.55;65.82
61359;BME280;47228;46.762;23.598;2023-08-21T06:47:46;97677.44;;;23.66;65.79
61359;BME280;47228;46.762;23.598;2023-08-21T06:50:15;97680.73;;;23.76;65.64
61359;BME280;47228;46.762;23.598;2023-08-21T06:52:43;97685.92;;;23.88;65.54
61359;BME280;47228;46.762;23.598;2023-08-21T06:55:11;97681.12;;;23.98;64.97
61359;BME280;47228;46.762;23.598;2023-08-21T06:57:39;97683.15;;;24.09;64.51
61359;BME280;47228;46.762;23.598;2023-08-21T07:00:08;97682.17;;;24.19;63.88
61359;BME280;47228;46.762;23.598;2023-08-21T07:02:36;97679.06;;;24.27;63.75
61359;BME280;47228;46.762;23.598;2023-08-21T07:05:04;97682.39;;;24.37;63.68
61359;BME280;47228;46.762;23.598;2023-08-21T07:07:32;97687.56;;;24.47;63.04
61359;BME280;47228;46.762;23.598;2023-08-21T07:10:00;97683.99;;;24.56;62.82
61359;BME280;47228;46.762;23.598;2023-08-21T07:12:29;97684.18;;;24.64;62.47
61359;BME280;47228;46.762;23.598;2023-08-21T07:14:57;97685.77;;;24.73;62.55
61359;BME280;47228;46.762;23.598;2023-08-21T07:17:25;97695.12;;;24.82;62.05
61359;BME280;47228;46.762;23.598;2023-08-21T07:19:54;97694.34;;;24.91;62.05
61359;BME280;47228;46.762;23.598;2023-08-21T07:22:22;97691.39;;;25.02;61.70
61359;BME280;47228;46.762;23.598;2023-08-21T07:24:50;97693.98;;;25.13;61.56
61359;BME280;47228;46.762;23.598;2023-08-21T07:27:18;97690.35;;;25.24;61.37
61359;BME280;47228;46.762;23.598;2023-08-21T07:29:46;97688.79;;;25.35;60.56
61359;BME280;47228;46.762;23.598;2023-08-21T07:32:14;97681.19;;;25.43;59.87
61359;BME280;47228;46.762;23.598;2023-08-21T07:34:42;97680.86;;;25.51;59.43
61359;BME280;47228;46.762;23.598;2023-08-21T07:37:10;97680.89;;;25.58;59.78
61359;BME280;47228;46.762;23.598;2023-08-21T07:39:38;97678.98;;;25.71;59.91
61359;BME280;47228;46.762;23.598;2023-08-21T07:42:06;97680.23;;;25.81;59.23
61359;BME280;47228;46.762;23.598;2023-08-21T07:44:34;97682.99;;;25.89;58.85
61359;BME280;47228;46.762;23.598;2023-08-21T07:47:02;97682.20;;;25.97;58.89
61359;BME280;47228;46.762;23.598;2023-08-21T07:49:31;97684.48;;;26.07;59.06
61359;BME280;47228;46.762;23.598;2023-08-21T07:52:00;97678.96;;;26.19;58.85
61359;BME280;47228;46.762;23.598;2023-08-21T07:54:28;97675.61;;;26.32;58.62
61359;BME280;47228;46.762;23.598;2023-08-21T07:56:58;97680.40;;;26.42;57.99
61359;BME280;47228;46.762;23.598;2023-08-21T07:59:26;97675.42;;;26.52;57.98
61359;BME280;47228;46.762;23.598;2023-08-21T08:01:54;97671.66;;;26.64;57.91
61359;BME280;47228;46.762;23.598;2023-08-21T08:04:23;97663.41;;;26.77;57.45
61359;BME280;47228;46.762;23.598;2023-08-21T08:06:51;97664.25;;;26.87;57.31
61359;BME280;47228;46.762;23.598;2023-08-21T08:09:19;97666.09;;;26.99;57.30
61359;BME280;47228;46.762;23.598;2023-08-21T08:11:47;97669.48;;;27.10;56.58
61359;BME280;47228;46.762;23.598;2023-08-21T08:14:16;97669.45;;;27.17;56.42
61359;BME280;47228;46.762;23.598;2023-08-21T08:16:44;97669.59;;;27.20;55.56
61359;BME280;47228;46.762;23.598;2023-08-21T08:19:12;97671.73;;;27.23;55.90
61359;BME280;47228;46.762;23.598;2023-08-21T08:21:40;97671.61;;;27.31;55.88
61359;BME280;47228;46.762;23.598;2023-08-21T08:24:08;97670.30;;;27.38;55.44
61359;BME280;47228;46.762;23.598;2023-08-21T08:26:36;97667.58;;;27.45;55.72
61359;BME280;47228;46.762;23.598;2023-08-21T08:29:04;97664.77;;;27.56;55.49
61359;BME280;47228;46.762;23.598;2023-08-21T08:31:35;97662.61;;;27.68;55.98
61359;BME280;47228;46.762;23.598;2023-08-21T08:34:03;97661.58;;;27.82;55.75
61359;BME280;47228;46.762;23.598;2023-08-21T08:36:31;97660.13;;;27.97;55.48
61359;BME280;47228;46.762;23.598;2023-08-21T08:38:59;97663.16;;;28.09;54.99
61359;BME280;47228;46.762;23.598;2023-08-21T08:41:37;97662.38;;;28.19;54.25
61359;BME280;47228;46.762;23.598;2023-08-21T08:44:06;97665.12;;;28.28;54.21
61359;BME280;47228;46.762;23.598;2023-08-21T08:46:35;97666.77;;;28.38;53.77
61359;BME280;47228;46.762;23.598;2023-08-21T08:49:04;97668.48;;;28.46;53.49
61359;BME280;47228;46.762;23.598;2023-08-21T08:51:34;97669.02;;;28.55;53.48
61359;BME280;47228;46.762;23.598;2023-08-21T08:54:03;97669.25;;;28.64;53.21
61359;BME280;47228;46.762;23.598;2023-08-21T08:56:31;97671.54;;;28.70;52.30
61359;BME280;47228;46.762;23.598;2023-08-21T08:58:59;97671.95;;;28.75;52.64
61359;BME280;47228;46.762;23.598;2023-08-21T09:01:28;97668.05;;;28.85;52.50
61359;BME280;47228;46.762;23.598;2023-08-21T09:03:56;97666.13;;;28.95;52.45
61359;BME280;47228;46.762;23.598;2023-08-21T09:06:25;97666.77;;;29.09;52.38
61359;BME280;47228;46.762;23.598;2023-08-21T09:08:55;97668.66;;;29.21;51.64
61359;BME280;47228;46.762;23.598;2023-08-21T09:11:23;97664.67;;;29.28;51.14
61359;BME280;47228;46.762;23.598;2023-08-21T09:13:53;97664.27;;;29.33;50.67
61359;BME280;47228;46.762;23.598;2023-08-21T09:16:24;97664.81;;;29.36;49.95
61359;BME280;47228;46.762;23.598;2023-08-21T09:18:55;97662.27;;;29.37;49.64
61359;BME280;47228;46.762;23.598;2023-08-21T09:21:27;97658.61;;;29.41;50.11
61359;BME280;47228;46.762;23.598;2023-08-21T09:23:58;97657.27;;;29.51;50.51
61359;BME280;47228;46.762;23.598;2023-08-21T09:26:30;97654.65;;;29.62;50.03
61359;BME280;47228;46.762;23.598;2023-08-21T09:28:59;97655.01;;;29.70;49.31
61359;BME280;47228;46.762;23.598;2023-08-21T09:31:32;97652.98;;;29.74;49.25
61359;BME280;47228;46.762;23.598;2023-08-21T09:34:03;97651.77;;;29.82;49.53
61359;BME280;47228;46.762;23.598;2023-08-21T09:36:33;97648.43;;;29.95;49.50
61359;BME280;47228;46.762;23.598;2023-08-21T09:39:01;97646.68;;;30.09;49.27
61359;BME280;47228;46.762;23.598;2023-08-21T09:41:31;97647.77;;;30.23;48.81
61359;BME280;47228;46.762;23.598;2023-08-21T09:44:00;97648.28;;;30.40;48.35
61359;BME280;47228;46.762;23.598;2023-08-21T09:46:28;97638.62;;;30.56;47.69
61359;BME280;47228;46.762;23.598;2023-08-21T09:48:57;97639.54;;;30.68;46.74
61359;BME280;47228;46.762;23.598;2023-08-21T09:51:26;97638.63;;;30.74;46.18
61359;BME280;47228;46.762;23.598;2023-08-21T09:53:55;97634.90;;;30.77;46.10
61359;BME280;47228;46.762;23.598;2023-08-21T09:56:23;97635.65;;;30.72;46.26
61359;BME280;47228;46.762;23.598;2023-08-21T09:58:52;97635.85;;;30.68;45.50
61359;BME280;47228;46.762;23.598;2023-08-21T10:01:21;97630.40;;;30.68;44.60
61359;BME280;47228;46.762;23.598;2023-08-21T10:03:50;97627.95;;;30.68;44.62
61359;BME280;47228;46.762;23.598;2023-08-21T10:06:23;97628.31;;;30.69;44.51
61359;BME280;47228;46.762;23.598;2023-08-21T10:08:53;97629.27;;;30.67;43.94
61359;BME280;47228;46.762;23.598;2023-08-21T10:11:22;97630.05;;;30.63;42.76
61359;BME280;47228;46.762;23.598;2023-08-21T10:13:51;97629.77;;;30.66;42.64
61359;BME280;47228;46.762;23.598;2023-08-21T10:16:19;97630.55;;;30.76;41.98
61359;BME280;47228;46.762;23.598;2023-08-21T10:18:51;97629.55;;;30.82;41.77
61359;BME280;47228;46.762;23.598;2023-08-21T10:21:21;97625.23;;;30.92;41.96
61359;BME280;47228;46.762;23.598;2023-08-21T10:23:51;97623.66;;;31.10;41.79
61359;BME280;47228;46.762;23.598;2023-08-21T10:26:20;97625.99;;;31.31;41.36
61359;BME280;47228;46.762;23.598;2023-08-21T10:34:05;97616.41;;;32.14;40.57
61359;BME280;47228;46.762;23.598;2023-08-21T10:39:28;97616.21;;;32.71;38.84
61359;BME280;47228;46.762;23.598;2023-08-21T10:42:03;97616.60;;;32.81;38.25
61359;BME280;47228;46.762;23.598;2023-08-21T10:50:02;97608.39;;;32.90;37.62
61359;BME280;47228;46.762;23.598;2023-08-21T10:52:53;97606.73;;;32.82;37.37
61359;BME280;47228;46.762;23.598;2023-08-21T10:55:21;97602.15;;;32.73;37.14
61359;BME280;47228;46.762;23.598;2023-08-21T10:57:49;97606.23;;;32.73;37.86
61359;BME280;47228;46.762;23.598;2023-08-21T11:00:18;97604.73;;;32.81;37.90
61359;BME280;47228;46.762;23.598;2023-08-21T11:02:49;97598.92;;;32.91;36.94
61359;BME280;47228;46.762;23.598;2023-08-21T11:05:18;97601.63;;;33.07;36.41
61359;BME280;47228;46.762;23.598;2023-08-21T11:07:48;97600.44;;;33.17;36.23
61359;BME280;47228;46.762;23.598;2023-08-21T11:10:18;97605.13;;;33.28;35.79
61359;BME280;47228;46.762;23.598;2023-08-21T11:12:57;97600.17;;;33.28;35.15
61359;BME280;47228;46.762;23.598;2023-08-21T11:15:27;97601.16;;;33.26;35.33
61359;BME280;47228;46.762;23.598;2023-08-21T11:17:59;97600.94;;;33.38;35.86
61359;BME280;47228;46.762;23.598;2023-08-21T11:20:33;97595.35;;;33.46;34.89
61359;BME280;47228;46.762;23.598;2023-08-21T11:23:06;97593.83;;;33.48;34.15
61359;BME280;47228;46.762;23.598;2023-08-21T11:25:40;97596.86;;;33.33;33.93
61359;BME280;47228;46.762;23.598;2023-08-21T11:28:08;97589.46;;;33.21;34.35
61359;BME280;47228;46.762;23.598;2023-08-21T11:30:36;97593.68;;;33.31;34.97
61359;BME280;47228;46.762;23.598;2023-08-21T11:33:09;97594.80;;;33.43;33.63
61359;BME280;47228;46.762;23.598;2023-08-21T11:35:38;97586.36;;;33.39;33.90
61359;BME280;47228;46.762;23.598;2023-08-21T11:38:19;97583.83;;;33.45;34.36
61359;BME280;47228;46.762;23.598;2023-08-21T11:40:58;97580.71;;;33.43;34.54
61359;BME280;47228;46.762;23.598;2023-08-21T11:43:41;97582.80;;;33.33;34.38
61359;BME280;47228;46.762;23.598;2023-08-21T11:46:10;97577.95;;;33.15;34.57
61359;BME280;47228;46.762;23.598;2023-08-21T11:48:40;97579.59;;;33.04;34.70
61359;BME280;47228;46.762;23.598;2023-08-21T11:51:08;97577.31;;;32.97;34.43
61359;BME280;47228;46.762;23.598;2023-08-21T11:53:39;97575.66;;;32.88;34.72
61359;BME280;47228;46.762;23.598;2023-08-21T11:56:12;97573.21;;;32.88;35.39
61359;BME280;47228;46.762;23.598;2023-08-21T11:58:42;97571.46;;;32.92;35.68
61359;BME280;47228;46.762;23.598;2023-08-21T12:01:17;97574.72;;;32.94;35.34
61359;BME280;47228;46.762;23.598;2023-08-21T12:03:46;97566.59;;;32.87;35.78
61359;BME280;47228;46.762;23.598;2023-08-21T12:06:14;97565.48;;;32.84;35.75
61359;BME280;47228;46.762;23.598;2023-08-21T12:08:42;97570.47;;;32.83;35.98
61359;BME280;47228;46.762;23.598;2023-08-21T12:11:10;97569.00;;;32.86;36.12
61359;BME280;47228;46.762;23.598;2023-08-21T12:13:39;97570.10;;;32.97;36.40
61359;BME280;47228;46.762;23.598;2023-08-21T12:16:08;97567.56;;;33.01;36.56
61359;BME280;47228;46.762;23.598;2023-08-21T12:18:36;97569.02;;;32.92;36.22
61359;BME280;47228;46.762;23.598;2023-08-21T12:21:04;97569.38;;;32.77;36.58
61359;BME280;47228;46.762;23.598;2023-08-21T12:23:32;97566.46;;;32.70;37.04
61359;BME280;47228;46.762;23.598;2023-08-21T12:26:00;97567.52;;;32.68;37.35
61359;BME280;47228;46.762;23.598;2023-08-21T12:28:28;97568.71;;;32.64;37.10
61359;BME280;47228;46.762;23.598;2023-08-21T12:30:56;97567.85;;;32.53;36.89
61359;BME280;47228;46.762;23.598;2023-08-21T12:33:24;97565.41;;;32.44;36.91
61359;BME280;47228;46.762;23.598;2023-08-21T12:35:52;97562.81;;;32.34;37.27
61359;BME280;47228;46.762;23.598;2023-08-21T12:38:20;97561.73;;;32.27;36.28
61359;BME280;47228;46.762;23.598;2023-08-21T12:40:49;97560.54;;;32.19;36.67
61359;BME280;47228;46.762;23.598;2023-08-21T12:43:17;97562.45;;;32.15;36.51
61359;BME280;47228;46.762;23.598;2023-08-21T12:45:45;97558.60;;;32.10;36.12
61359;BME280;47228;46.762;23.598;2023-08-21T12:48:13;97555.19;;;32.07;36.18
61359;BME280;47228;46.762;23.598;2023-08-21T12:50:42;97551.38;;;32.07;36.46
61359;BME280;47228;46.762;23.598;2023-08-21T12:53:10;97549.20;;;32.06;36.54
61359;BME280;47228;46.762;23.598;2023-08-21T12:55:38;97546.79;;;32.02;36.95
61359;BME280;47228;46.762;23.598;2023-08-21T12:58:06;97547.95;;;32.01;37.16
61359;BME280;47228;46.762;23.598;2023-08-21T13:00:34;97546.14;;;31.94;36.77
61359;BME280;47228;46.762;23.598;2023-08-21T13:03:03;97543.66;;;31.81;36.78
61359;BME280;47228;46.762;23.598;2023-08-21T13:05:31;97542.10;;;31.63;36.62
61359;BME280;47228;46.762;23.598;2023-08-21T13:07:59;97539.02;;;31.51;36.68
61359;BME280;47228;46.762;23.598;2023-08-21T13:10:28;97536.15;;;31.45;36.91
61359;BME280;47228;46.762;23.598;2023-08-21T13:12:55;97534.62;;;31.44;36.96
61359;BME280;47228;46.762;23.598;2023-08-21T13:15:23;97531.15;;;31.45;37.20
61359;BME280;47228;46.762;23.598;2023-08-21T13:17:52;97526.44;;;31.48;37.34